createdAt,value
2023-02-24T00:01:51.580Z,100410.09
2023-02-24T00:05:03.795Z,100400.72
2023-02-24T00:08:07.402Z,100396.31
2023-02-24T00:11:13.744Z,100395.47
2023-02-24T00:14:18.872Z,100392.06
2023-02-24T00:17:27.760Z,100391.22
2023-02-24T00:20:33.707Z,100392.78
2023-02-24T00:23:37.304Z,100391.97
2023-02-24T00:26:42.904Z,100387.72
2023-02-24T00:29:47.914Z,100387.72
2023-02-24T00:32:52.446Z,100383.28
2023-02-24T00:35:55.667Z,100374.78
2023-02-24T00:39:02.934Z,100381.16
2023-02-24T00:42:08.072Z,100374.28
2023-02-24T00:45:11.923Z,100378.84
2023-02-24T00:48:16.305Z,100381.50
2023-02-24T00:51:23.318Z,100381.78
2023-02-24T00:54:28.324Z,100379.56
2023-02-24T00:57:33.248Z,100374.91
2023-02-24T01:00:37.722Z,100383.41
2023-02-24T01:03:46.025Z,100381.81
2023-02-24T01:07:00.353Z,100381.94
2023-02-24T01:10:08.463Z,100384.41
2023-02-24T01:13:13.927Z,100396.06
2023-02-24T01:16:19.555Z,100398.91
2023-02-24T01:19:31.612Z,100402.88
2023-02-24T01:22:42.346Z,100397.41
2023-02-24T01:25:50.847Z,100397.41
2023-02-24T01:28:55.712Z,100390.75
2023-02-24T01:32:02.047Z,100400.41
2023-02-24T01:35:12.229Z,100400.81
2023-02-24T01:38:16.198Z,100404.16
2023-02-24T01:41:26.045Z,100411.72
2023-02-24T01:45:25.220Z,100421.06
2023-02-24T01:48:35.707Z,100410.00
2023-02-24T01:51:45.788Z,100409.50
2023-02-24T01:55:00.196Z,100407.75
2023-02-24T01:58:10.444Z,100411.31
2023-02-24T02:01:16.997Z,100405.88
2023-02-24T02:04:29.778Z,100407.09
2023-02-24T02:07:34.283Z,100403.09
2023-02-24T02:10:39.460Z,100406.38
2023-02-24T02:13:45.526Z,100407.81
2023-02-24T02:17:12.893Z,100404.28
2023-02-24T02:21:09.482Z,100407.00
2023-02-24T02:24:54.539Z,100407.06
2023-02-24T02:28:23.871Z,100407.91
2023-02-24T02:32:07.001Z,100397.97
2023-02-24T02:35:22.213Z,100404.88
2023-02-24T02:38:35.689Z,100400.91
2023-02-24T02:41:54.131Z,100396.66
2023-02-24T02:45:07.981Z,100393.47
2023-02-24T02:48:20.175Z,100393.25
2023-02-24T02:51:31.343Z,100402.22
2023-02-24T02:54:49.824Z,100402.44
2023-02-24T02:57:59.984Z,100404.19
2023-02-24T03:01:07.249Z,100400.88
2023-02-24T03:04:17.165Z,100407.88
2023-02-24T03:07:31.597Z,100409.00
2023-02-24T03:10:35.572Z,100408.19
2023-02-24T03:13:44.364Z,100412.50
2023-02-24T03:16:50.621Z,100407.63
2023-02-24T03:20:15.658Z,100390.25
2023-02-24T03:23:27.287Z,100393.03
2023-02-24T03:26:41.524Z,100400.81
2023-02-24T03:29:52.729Z,100386.34
2023-02-24T03:33:01.772Z,100387.16
2023-02-24T03:36:07.262Z,100381.88
2023-02-24T03:39:13.218Z,100374.16
2023-02-24T03:42:30.406Z,100373.19
2023-02-24T03:45:39.748Z,100368.53
2023-02-24T03:48:51.061Z,100365.19
2023-02-24T03:52:10.338Z,100356.56
2023-02-24T03:55:27.985Z,100360.75
2023-02-24T03:58:46.204Z,100357.97
2023-02-24T04:01:58.062Z,100354.63
2023-02-24T04:05:16.656Z,100354.41
2023-02-24T04:08:31.416Z,100336.38
2023-02-24T04:11:47.096Z,100335.41
2023-02-24T04:15:04.609Z,100333.72
2023-02-24T04:18:14.995Z,100338.94
2023-02-24T04:21:23.929Z,100327.22
2023-02-24T04:24:31.438Z,100329.66
2023-02-24T04:27:38.540Z,100321.94
2023-02-24T04:30:53.817Z,100320.22
2023-02-24T04:33:57.018Z,100316.53
2023-02-24T04:37:09.998Z,100310.09
2023-02-24T04:40:17.706Z,100302.59
2023-02-24T04:43:22.246Z,100306.59
2023-02-24T04:46:25.421Z,100311.63
2023-02-24T04:49:28.625Z,100307.44
2023-02-24T04:52:31.821Z,100298.28
2023-02-24T04:55:40.187Z,100293.13
2023-02-24T04:58:46.369Z,100289.63
2023-02-24T05:01:51.652Z,100289.09
2023-02-24T05:04:54.858Z,100283.56
2023-02-24T05:08:04.185Z,100281.91
2023-02-24T05:11:08.436Z,100282.69
2023-02-24T05:14:15.562Z,100275.84
2023-02-24T05:17:21.507Z,100270.69
2023-02-24T05:20:42.129Z,100272.00
2023-02-24T05:23:47.585Z,100269.34
2023-02-24T05:26:57.980Z,100269.97
2023-02-24T05:30:02.471Z,100266.00
2023-02-24T05:33:08.213Z,100263.16
2023-02-24T05:36:17.245Z,100251.31
2023-02-24T05:39:21.682Z,100241.94
2023-02-24T05:42:24.774Z,100251.31
2023-02-24T05:45:30.588Z,100245.72
2023-02-24T05:48:35.257Z,100246.47
2023-02-24T05:51:43.405Z,100242.38
2023-02-24T05:54:48.220Z,100242.25
2023-02-24T05:57:53.197Z,100230.28
2023-02-24T06:00:58.766Z,100235.13
2023-02-24T06:04:06.714Z,100230.91
2023-02-24T06:07:18.913Z,100226.94
2023-02-24T06:10:24.119Z,100230.28
2023-02-24T06:13:27.193Z,100216.28
2023-02-24T06:16:31.889Z,100220.31
2023-02-24T06:19:35.526Z,100210.84
2023-02-24T06:22:42.472Z,100210.75
2023-02-24T06:25:58.035Z,100207.56
2023-02-24T06:29:04.322Z,100204.25
2023-02-24T06:32:09.472Z,100195.47
2023-02-24T06:35:13.396Z,100197.50
2023-02-24T06:38:19.242Z,100191.50
2023-02-24T06:41:29.476Z,100202.59
2023-02-24T06:44:39.732Z,100200.91
2023-02-24T06:47:51.787Z,100192.13
2023-02-24T06:50:58.042Z,100188.94
2023-02-24T06:54:03.512Z,100180.25
2023-02-24T06:57:12.780Z,100182.53
2023-02-24T07:00:17.781Z,100177.47
2023-02-24T07:03:39.664Z,100172.13
2023-02-24T07:06:46.314Z,100169.56
2023-02-24T07:09:49.771Z,100167.91
2023-02-24T07:12:54.673Z,100163.66
2023-02-24T07:15:57.794Z,100167.72
2023-02-24T07:19:09.712Z,100165.16
2023-02-24T07:22:16.912Z,100160.78
2023-02-24T07:25:33.175Z,100152.59
2023-02-24T07:28:40.231Z,100143.00
2023-02-24T07:31:43.740Z,100143.81
2023-02-24T07:34:48.522Z,100140.31
2023-02-24T07:37:52.416Z,100144.00
2023-02-24T07:40:59.128Z,100131.13
2023-02-24T07:44:03.387Z,100125.72
2023-02-24T07:47:10.616Z,100118.25
2023-02-24T07:50:18.440Z,100123.22
2023-02-24T07:53:22.743Z,100115.28
2023-02-24T07:56:27.858Z,100096.66
2023-02-24T07:59:38.038Z,100088.72
2023-02-24T08:02:41.154Z,100090.69
2023-02-24T08:05:45.660Z,100087.19
2023-02-24T08:09:16.653Z,100076.25
2023-02-24T08:12:23.064Z,100071.66
2023-02-24T08:15:33.932Z,100066.13
2023-02-24T08:18:40.544Z,100053.34
2023-02-24T08:21:47.464Z,100038.56
2023-02-24T08:25:00.649Z,100040.00
2023-02-24T08:28:08.886Z,100039.50
2023-02-24T08:31:13.077Z,100025.78
2023-02-24T08:34:16.232Z,100024.97
2023-02-24T08:37:20.650Z,100022.31
2023-02-24T08:40:39.548Z,100013.56
2023-02-24T08:43:46.366Z,100011.19
2023-02-24T08:46:50.315Z,100006.03
2023-02-24T08:49:53.852Z,100000.19
2023-02-24T08:52:58.919Z,100000.44
2023-02-24T08:56:09.500Z,99989.97
2023-02-24T08:59:29.046Z,99983.72
2023-02-24T09:02:37.290Z,99979.22
2023-02-24T09:05:40.322Z,99972.22
2023-02-24T09:08:47.391Z,99965.78
2023-02-24T09:11:56.150Z,99963.56
2023-02-24T09:15:04.565Z,99960.94
2023-02-24T09:18:14.357Z,99955.94
2023-02-24T09:21:37.421Z,99950.06
2023-02-24T09:24:44.609Z,99949.44
2023-02-24T09:27:52.442Z,99949.50
2023-02-24T09:30:58.680Z,99948.44
2023-02-24T09:34:04.044Z,99940.06
2023-02-24T09:37:24.933Z,99925.31
2023-02-24T09:40:48.767Z,99930.47
2023-02-24T09:43:59.854Z,99920.31
2023-02-24T09:47:13.539Z,99919.16
2023-02-24T09:51:03.414Z,99911.50
2023-02-24T09:54:17.901Z,99907.19
2023-02-24T09:57:37.295Z,99903.16
2023-02-24T10:00:46.185Z,99892.31
2023-02-24T10:04:14.794Z,99887.31
2023-02-24T10:07:30.518Z,99877.97
2023-02-24T10:10:38.828Z,99883.75
2023-02-24T10:13:49.766Z,99885.13
2023-02-24T10:17:09.817Z,99875.75
2023-02-24T10:20:31.333Z,99874.81
2023-02-24T10:23:56.886Z,99870.59
2023-02-24T10:27:16.433Z,99861.91
2023-02-24T10:30:42.809Z,99856.94
2023-02-24T10:33:49.283Z,99846.25
2023-02-24T10:36:53.166Z,99837.22
2023-02-24T10:39:59.575Z,99842.00
2023-02-24T10:43:10.752Z,99828.00
2023-02-24T10:46:41.670Z,99831.31
2023-02-24T10:49:59.887Z,99805.88
2023-02-24T10:53:26.733Z,99806.09
2023-02-24T10:56:41.813Z,99820.53
2023-02-24T11:00:19.395Z,99808.19
2023-02-24T11:03:36.204Z,99802.53
2023-02-24T11:06:57.801Z,99799.50
2023-02-24T11:10:14.051Z,99792.41
2023-02-24T11:13:38.016Z,99788.72
2023-02-24T11:17:08.208Z,99792.56
2023-02-24T11:20:42.297Z,99787.84
2023-02-24T11:23:54.040Z,99768.31
2023-02-24T11:26:58.448Z,99776.75
2023-02-24T11:30:20.912Z,99770.06
2023-02-24T11:33:32.995Z,99761.38
2023-02-24T11:36:50.881Z,99767.78
2023-02-24T11:40:00.184Z,99754.59
2023-02-24T11:43:11.648Z,99746.16
2023-02-24T11:46:20.626Z,99748.50
2023-02-24T11:49:38.045Z,99720.56
2023-02-24T11:52:47.483Z,99708.78
2023-02-24T11:55:59.748Z,99695.41
2023-02-24T11:59:11.579Z,99697.06
2023-02-24T12:02:21.167Z,99684.22
2023-02-24T12:05:29.363Z,99673.91
2023-02-24T12:08:37.094Z,99664.22
2023-02-24T12:11:52.470Z,99655.00
2023-02-24T12:15:00.739Z,99640.66
2023-02-24T12:18:13.960Z,99643.41
2023-02-24T12:21:30.861Z,99629.88
2023-02-24T12:24:37.859Z,99623.91
2023-02-24T12:27:54.757Z,99619.84
2023-02-24T12:31:14.689Z,99611.63
2023-02-24T12:34:29.753Z,99604.66
2023-02-24T12:37:55.044Z,99613.75
2023-02-24T12:41:19.055Z,99601.28
2023-02-24T12:44:34.545Z,99593.03
2023-02-24T12:47:55.930Z,99593.97
2023-02-24T12:51:05.810Z,99587.00
2023-02-24T12:54:18.079Z,99570.69
2023-02-24T12:57:37.003Z,99576.44
2023-02-24T13:00:56.568Z,99555.41
2023-02-24T13:04:21.327Z,99549.19
2023-02-24T13:07:43.939Z,99539.81
2023-02-24T13:10:52.267Z,99525.28
2023-02-24T13:14:05.154Z,99519.94
2023-02-24T13:17:21.255Z,99516.44
2023-02-24T13:20:31.994Z,99501.03
2023-02-24T13:23:36.224Z,99510.59
2023-02-24T13:26:39.461Z,99480.19
2023-02-24T13:29:50.111Z,99487.81
2023-02-24T13:33:04.315Z,99493.09
2023-02-24T13:36:16.214Z,99486.31
2023-02-24T13:39:27.146Z,99477.69
2023-02-24T13:42:33.697Z,99473.31
2023-02-24T13:45:42.148Z,99470.16
2023-02-24T13:49:22.982Z,99460.31
2023-02-24T13:52:42.570Z,99462.97
2023-02-24T13:56:07.870Z,99450.88
2023-02-24T13:59:57.475Z,99449.50
2023-02-24T14:03:02.754Z,99444.25
2023-02-24T14:06:07.616Z,99438.38
2023-02-24T14:09:18.086Z,99427.00
2023-02-24T14:12:25.146Z,99428.66
2023-02-24T14:15:37.285Z,99416.63
2023-02-24T14:18:42.133Z,99410.75
2023-02-24T14:21:52.238Z,99416.47
2023-02-24T14:25:03.493Z,99413.22
2023-02-24T14:28:07.065Z,99406.09
2023-02-24T14:31:13.804Z,99392.25
2023-02-24T14:34:21.686Z,99396.81
2023-02-24T14:37:31.014Z,99388.84
2023-02-24T14:40:37.478Z,99387.81
2023-02-24T14:43:43.391Z,99389.84
2023-02-24T14:46:51.929Z,99383.50
2023-02-24T14:50:05.153Z,99377.53
2023-02-24T14:53:18.742Z,99372.41
2023-02-24T14:56:32.902Z,99361.84
2023-02-24T14:59:42.870Z,99367.72
2023-02-24T15:02:51.184Z,99360.75
2023-02-24T15:05:59.750Z,99350.47
2023-02-24T15:09:08.501Z,99343.50
2023-02-24T15:12:21.870Z,99339.66
2023-02-24T15:15:28.411Z,99331.38
2023-02-24T15:18:32.012Z,99327.06
2023-02-24T15:21:43.008Z,99318.44
2023-02-24T15:24:46.573Z,99316.88
2023-02-24T15:27:53.522Z,99312.28
2023-02-24T15:31:10.507Z,99292.38
2023-02-24T15:34:26.984Z,99289.53
2023-02-24T15:37:42.557Z,99291.19
2023-02-24T15:40:53.621Z,99291.56
2023-02-24T15:43:57.178Z,99277.84
2023-02-24T15:47:13.637Z,99278.34
2023-02-24T15:50:19.663Z,99264.75
2023-02-24T15:53:27.252Z,99266.84
2023-02-24T15:56:33.503Z,99250.78
2023-02-24T15:59:36.783Z,99245.66
2023-02-24T16:02:40.671Z,99244.00
2023-02-24T16:05:43.856Z,99242.19
2023-02-24T16:08:50.414Z,99236.84
2023-02-24T16:11:54.340Z,99239.41
2023-02-24T16:15:02.960Z,99238.50
2023-02-24T16:18:15.743Z,99235.19
2023-02-24T16:21:21.409Z,99222.19
2023-02-24T16:24:26.262Z,99221.25
2023-02-24T16:27:31.455Z,99217.03
2023-02-24T16:30:35.585Z,99232.34
2023-02-24T16:33:55.027Z,99217.66
2023-02-24T16:36:58.953Z,99211.59
2023-02-24T16:40:05.957Z,99203.97
2023-02-24T16:43:10.053Z,99203.53
2023-02-24T16:46:17.220Z,99201.56
2023-02-24T16:49:22.303Z,99191.28
2023-02-24T16:52:26.155Z,99189.66
2023-02-24T16:55:31.536Z,99192.84
2023-02-24T16:58:34.992Z,99195.31
2023-02-24T17:01:38.930Z,99186.56
2023-02-24T17:04:45.149Z,99184.00
2023-02-24T17:07:50.580Z,99195.03
2023-02-24T17:10:55.921Z,99187.22
2023-02-24T17:13:59.466Z,99187.22
2023-02-24T17:17:05.195Z,99170.97
2023-02-24T17:20:18.923Z,99170.75
2023-02-24T17:23:23.358Z,99171.41
2023-02-24T17:26:30.100Z,99170.28
2023-02-24T17:29:35.479Z,99160.94
2023-02-24T17:32:39.020Z,99161.53
2023-02-24T17:35:42.862Z,99160.53
2023-02-24T17:38:47.015Z,99156.00
2023-02-24T17:41:51.636Z,99148.41
2023-02-24T17:44:54.761Z,99135.44
2023-02-24T17:47:58.124Z,99141.44
2023-02-24T17:51:04.575Z,99141.44
2023-02-24T17:54:10.885Z,99141.22
2023-02-24T17:57:18.352Z,99125.78
2023-02-24T18:00:21.542Z,99122.09
2023-02-24T18:03:25.307Z,99128.88
2023-02-24T18:06:28.939Z,99126.41
2023-02-24T18:09:32.224Z,99120.97
2023-02-24T18:12:37.517Z,99103.88
2023-02-24T18:15:40.801Z,99108.31
2023-02-24T18:18:43.997Z,99093.59
2023-02-24T18:21:48.919Z,99096.91
2023-02-24T18:24:59.749Z,99096.59
2023-02-24T18:28:05.395Z,99093.91
2023-02-24T18:31:14.492Z,99091.34
2023-02-24T18:34:17.729Z,99093.91
2023-02-24T18:37:22.127Z,99085.28
2023-02-24T18:40:29.735Z,99076.84
2023-02-24T18:43:35.925Z,99075.50
2023-02-24T18:46:40.023Z,99082.41
2023-02-24T18:49:43.204Z,99066.72
2023-02-24T18:52:46.529Z,99070.06
2023-02-24T18:55:51.538Z,99055.44
2023-02-24T18:58:58.889Z,99060.34
2023-02-24T19:02:02.242Z,99055.00
2023-02-24T19:05:05.958Z,99056.66
2023-02-24T19:08:09.132Z,99053.88
2023-02-24T19:11:15.410Z,99049.44
2023-02-24T19:14:19.940Z,99045.94
2023-02-24T19:17:23.118Z,99047.63
2023-02-24T19:20:26.574Z,99049.44
2023-02-24T19:23:29.662Z,99038.97
2023-02-24T19:26:32.795Z,99033.81
2023-02-24T19:29:37.262Z,99031.25
2023-02-24T19:32:43.365Z,99035.47
2023-02-24T19:35:46.602Z,99037.72
2023-02-24T19:38:50.594Z,99026.38
2023-02-24T19:41:54.854Z,99014.25
2023-02-24T19:44:59.714Z,99008.88
2023-02-24T19:48:02.866Z,99008.88
2023-02-24T19:51:10.057Z,99003.59
2023-02-24T19:54:14.026Z,98998.38
2023-02-24T19:57:17.256Z,98994.16
2023-02-24T20:00:23.701Z,99001.03
2023-02-24T20:03:28.371Z,98986.63
2023-02-24T20:06:35.812Z,98986.63
2023-02-24T20:09:43.241Z,98988.28
2023-02-24T20:12:54.993Z,98973.88
2023-02-24T20:16:15.388Z,98977.97
2023-02-24T20:19:28.348Z,98982.94
2023-02-24T20:22:42.098Z,98974.97
2023-02-24T20:26:10.167Z,98968.91
2023-02-24T20:29:13.955Z,98969.63
2023-02-24T20:32:18.545Z,98969.75
2023-02-24T20:35:26.003Z,98964.47
2023-02-24T20:38:29.748Z,98966.13
2023-02-24T20:41:38.490Z,98956.75
2023-02-24T20:44:42.390Z,98961.16
2023-02-24T20:48:07.732Z,98959.44
2023-02-24T20:51:38.437Z,98954.38
2023-02-24T20:54:47.859Z,98948.31
2023-02-24T20:58:00.255Z,98948.09
2023-02-24T21:01:22.590Z,98932.78
2023-02-24T21:04:37.736Z,98936.16
2023-02-24T21:07:52.327Z,98935.22
2023-02-24T21:15:37.732Z,98918.03
2023-02-24T21:18:51.628Z,98918.25
2023-02-24T21:22:31.327Z,98911.94
2023-02-24T21:25:42.342Z,98905.16
2023-02-24T21:28:52.423Z,98893.09
2023-02-24T21:31:56.685Z,98889.38
2023-02-24T21:35:00.257Z,98885.25
2023-02-24T21:38:06.729Z,98887.50
2023-02-24T21:41:19.390Z,98884.00
2023-02-24T21:44:22.690Z,98870.91
2023-02-24T21:47:30.740Z,98868.56
2023-02-24T21:50:34.160Z,98869.41
2023-02-24T21:53:41.153Z,98867.19
2023-02-24T21:56:46.568Z,98863.69
2023-02-24T21:59:50.281Z,98864.38
2023-02-24T22:02:57.678Z,98855.75
2023-02-24T22:06:00.791Z,98852.00
2023-02-24T22:09:11.274Z,98839.03
2023-02-24T22:12:14.475Z,98847.22
2023-02-24T22:15:18.172Z,98837.84
2023-02-24T22:18:21.491Z,98836.09
2023-02-24T22:21:28.138Z,98828.16
2023-02-24T22:24:33.149Z,98825.44
2023-02-24T22:27:36.305Z,98826.38
2023-02-24T22:30:39.521Z,98826.28
2023-02-24T22:33:44.481Z,98831.31
2023-02-24T22:36:47.678Z,98830.59
2023-02-24T22:39:52.238Z,98830.47
2023-02-24T22:42:55.304Z,98827.22
2023-02-24T22:46:00.836Z,98837.50
2023-02-24T22:49:05.946Z,98818.78
2023-02-24T22:52:09.577Z,98827.00
2023-02-24T22:55:14.088Z,98821.94
2023-02-24T22:58:18.010Z,98816.91
2023-02-24T23:01:24.114Z,98822.75
2023-02-24T23:04:29.226Z,98811.53
2023-02-24T23:07:33.729Z,98815.63
2023-02-24T23:16:28.163Z,98822.41
2023-02-24T23:19:31.365Z,98819.50
2023-02-24T23:22:34.402Z,98827.97
2023-02-24T23:25:38.792Z,98822.06
2023-02-24T23:28:43.171Z,98818.56
2023-02-24T23:31:50.418Z,98823.50
2023-02-24T23:34:54.264Z,98818.22
2023-02-24T23:37:57.361Z,98825.81
2023-02-24T23:41:08.821Z,98818.81
2023-02-24T23:44:13.321Z,98831.84
2023-02-24T23:47:17.292Z,98823.03
2023-02-24T23:50:21.076Z,98827.69
2023-02-24T23:53:24.613Z,98815.16
2023-02-24T23:56:29.950Z,98813.16
2023-02-24T23:59:34.459Z,98810.09
